createdAt,value
2022-09-16T00:01:10.274Z,12.00
2022-09-16T00:03:38.367Z,12.00
2022-09-16T00:06:06.761Z,12.00
2022-09-16T00:08:34.948Z,12.00
2022-09-16T00:11:03.491Z,11.90
2022-09-16T00:13:31.513Z,11.90
2022-09-16T00:15:59.542Z,11.90
2022-09-16T00:18:28.933Z,11.80
2022-09-16T00:20:56.937Z,11.80
2022-09-16T00:23:24.850Z,11.80
2022-09-16T00:25:53.632Z,11.80
2022-09-16T00:28:22.615Z,11.80
2022-09-16T00:30:50.830Z,11.80
2022-09-16T00:33:19.716Z,11.80
2022-09-16T00:35:49.176Z,11.80
2022-09-16T00:38:17.420Z,11.90
2022-09-16T00:40:46.649Z,11.90
2022-09-16T00:43:14.995Z,11.80
2022-09-16T00:45:45.189Z,11.70
2022-09-16T00:48:20.166Z,11.70
2022-09-16T00:50:53.126Z,11.70
2022-09-16T00:53:23.418Z,11.70
2022-09-16T00:55:52.517Z,11.70
2022-09-16T00:58:26.561Z,11.70
2022-09-16T01:00:54.592Z,11.70
2022-09-16T01:03:22.979Z,11.70
2022-09-16T01:05:53.251Z,11.70
2022-09-16T01:08:21.307Z,11.70
2022-09-16T01:10:49.312Z,11.70
2022-09-16T01:13:17.612Z,11.70
2022-09-16T01:15:54.625Z,11.70
2022-09-16T01:18:26.606Z,11.70
2022-09-16T01:21:25.234Z,11.60
2022-09-16T01:24:26.018Z,11.60
2022-09-16T01:27:39.682Z,11.60
2022-09-16T01:30:38.587Z,11.50
2022-09-16T01:33:17.041Z,11.50
2022-09-16T01:36:19.959Z,11.50
2022-09-16T01:39:03.173Z,11.40
2022-09-16T01:41:40.999Z,11.50
2022-09-16T01:44:20.249Z,11.50
2022-09-16T01:46:53.607Z,11.50
2022-09-16T01:49:31.184Z,11.60
2022-09-16T01:52:07.525Z,11.50
2022-09-16T01:54:41.025Z,11.50
2022-09-16T01:57:15.118Z,11.60
2022-09-16T01:59:45.741Z,11.60
2022-09-16T02:02:21.291Z,11.50
2022-09-16T02:04:55.719Z,11.50
2022-09-16T02:07:26.852Z,11.60
2022-09-16T02:09:59.447Z,11.60
2022-09-16T02:12:31.887Z,11.60
2022-09-16T02:15:05.147Z,11.60
2022-09-16T02:17:37.362Z,11.50
2022-09-16T02:20:11.252Z,11.50
2022-09-16T02:22:43.440Z,11.50
2022-09-16T02:25:15.317Z,11.40
2022-09-16T02:27:46.809Z,11.40
2022-09-16T02:30:18.506Z,11.40
2022-09-16T02:32:49.937Z,11.40
2022-09-16T02:35:21.786Z,11.50
2022-09-16T02:37:54.506Z,11.40
2022-09-16T02:40:28.050Z,11.40
2022-09-16T02:42:57.637Z,11.40
2022-09-16T02:45:34.115Z,11.40
2022-09-16T02:48:06.855Z,11.40
2022-09-16T02:50:42.136Z,11.40
2022-09-16T02:53:18.182Z,11.30
2022-09-16T02:55:53.364Z,11.30
2022-09-16T02:58:21.636Z,11.30
2022-09-16T03:00:53.331Z,11.30
2022-09-16T03:03:22.167Z,11.20
2022-09-16T03:06:14.713Z,11.20
2022-09-16T03:08:44.464Z,11.20
2022-09-16T03:11:23.451Z,11.20
2022-09-16T03:13:58.763Z,11.30
2022-09-16T03:16:34.519Z,11.20
2022-09-16T03:19:12.931Z,11.20
2022-09-16T03:21:52.375Z,11.20
2022-09-16T03:24:31.077Z,11.20
2022-09-16T03:27:04.819Z,11.20
2022-09-16T03:29:37.241Z,11.20
2022-09-16T03:32:15.336Z,11.20
2022-09-16T03:34:48.632Z,11.30
2022-09-16T03:37:20.909Z,11.20
2022-09-16T03:39:53.684Z,11.20
2022-09-16T03:42:22.537Z,11.20
2022-09-16T03:44:50.997Z,11.20
2022-09-16T03:47:19.382Z,11.20
2022-09-16T03:49:47.407Z,11.20
2022-09-16T03:52:18.528Z,11.10
2022-09-16T03:54:46.473Z,11.20
2022-09-16T03:57:14.452Z,11.20
2022-09-16T03:59:42.700Z,11.10
2022-09-16T04:02:10.656Z,11.10
2022-09-16T04:04:38.921Z,11.10
2022-09-16T04:07:06.927Z,11.20
2022-09-16T04:09:37.276Z,11.20
2022-09-16T04:12:07.672Z,11.20
2022-09-16T04:14:35.894Z,11.10
2022-09-16T04:17:04.433Z,11.10
2022-09-16T04:19:33.149Z,11.10
2022-09-16T04:22:01.216Z,11.00
2022-09-16T04:24:29.631Z,11.00
2022-09-16T04:26:59.271Z,11.00
2022-09-16T04:29:27.752Z,11.00
2022-09-16T04:31:56.074Z,11.00
2022-09-16T04:34:24.109Z,11.00
2022-09-16T04:36:52.074Z,11.00
2022-09-16T04:39:20.082Z,11.00
2022-09-16T04:41:48.054Z,11.00
2022-09-16T04:44:17.623Z,11.00
2022-09-16T04:46:45.651Z,10.90
2022-09-16T04:49:13.798Z,10.90
2022-09-16T04:51:41.836Z,10.80
2022-09-16T04:54:09.847Z,10.80
2022-09-16T04:56:37.885Z,10.80
2022-09-16T04:59:06.902Z,10.80
2022-09-16T05:01:38.806Z,10.70
2022-09-16T05:04:08.323Z,10.60
2022-09-16T05:06:37.936Z,10.60
2022-09-16T05:09:06.498Z,10.50
2022-09-16T05:11:36.975Z,10.50
2022-09-16T05:14:06.655Z,10.50
2022-09-16T05:16:36.488Z,10.60
2022-09-16T05:19:05.621Z,10.60
2022-09-16T05:21:36.484Z,10.60
2022-09-16T05:24:08.096Z,10.70
2022-09-16T05:26:37.545Z,10.70
2022-09-16T05:29:08.510Z,10.80
2022-09-16T05:31:39.892Z,10.90
2022-09-16T05:34:12.410Z,10.90
2022-09-16T05:36:42.177Z,11.00
2022-09-16T05:39:22.814Z,11.00
2022-09-16T05:41:55.346Z,11.10
2022-09-16T05:44:23.653Z,11.20
2022-09-16T05:46:53.325Z,11.30
2022-09-16T05:49:21.643Z,11.30
2022-09-16T05:51:50.531Z,11.40
2022-09-16T05:54:19.217Z,11.50
2022-09-16T05:56:48.032Z,11.50
2022-09-16T05:59:17.692Z,11.50
2022-09-16T06:01:46.860Z,11.50
2022-09-16T06:04:16.856Z,11.50
2022-09-16T06:06:46.507Z,11.40
2022-09-16T06:09:16.556Z,11.30
2022-09-16T06:11:46.507Z,11.20
2022-09-16T06:14:16.212Z,11.20
2022-09-16T06:16:44.716Z,11.10
2022-09-16T06:19:14.549Z,11.00
2022-09-16T06:21:44.890Z,11.10
2022-09-16T06:24:13.415Z,11.10
2022-09-16T06:26:42.897Z,11.20
2022-09-16T06:29:11.914Z,11.30
2022-09-16T06:31:40.614Z,11.30
2022-09-16T06:34:09.771Z,11.30
2022-09-16T06:36:44.662Z,11.30
2022-09-16T06:39:16.926Z,11.30
2022-09-16T06:41:46.010Z,11.30
2022-09-16T06:44:14.059Z,11.30
2022-09-16T06:46:42.078Z,11.40
2022-09-16T06:49:11.443Z,11.40
2022-09-16T06:51:39.504Z,11.40
2022-09-16T06:54:08.874Z,11.40
2022-09-16T06:56:39.707Z,11.40
2022-09-16T06:59:08.630Z,11.50
2022-09-16T07:01:37.386Z,11.60
2022-09-16T07:04:08.183Z,11.60
2022-09-16T07:09:25.331Z,11.80
2022-09-16T07:11:55.220Z,11.70
2022-09-16T07:14:23.454Z,11.80
2022-09-16T07:16:51.456Z,11.80
2022-09-16T07:19:19.616Z,11.80
2022-09-16T07:21:47.859Z,11.90
2022-09-16T07:24:16.181Z,11.90
2022-09-16T07:26:45.198Z,11.90
2022-09-16T07:29:16.116Z,12.00
2022-09-16T07:31:44.467Z,12.00
2022-09-16T07:34:13.848Z,12.10
2022-09-16T07:36:43.606Z,12.10
2022-09-16T07:39:13.342Z,12.20
2022-09-16T07:41:44.478Z,12.30
2022-09-16T07:44:15.576Z,12.30
2022-09-16T07:46:44.315Z,12.30
2022-09-16T07:49:14.764Z,12.40
2022-09-16T07:51:43.077Z,12.50
2022-09-16T07:54:13.244Z,12.60
2022-09-16T07:56:42.560Z,12.60
2022-09-16T07:59:18.365Z,12.70
2022-09-16T08:01:47.745Z,12.80
2022-09-16T08:04:15.941Z,12.80
2022-09-16T08:06:43.928Z,12.90
2022-09-16T08:09:37.976Z,13.00
2022-09-16T08:12:00.471Z,13.10
2022-09-16T08:14:29.864Z,13.10
2022-09-16T08:16:58.546Z,13.20
2022-09-16T08:19:26.612Z,13.20
2022-09-16T08:21:54.610Z,13.20
2022-09-16T08:24:22.848Z,13.30
2022-09-16T08:26:50.877Z,13.40
2022-09-16T08:29:18.978Z,13.40
2022-09-16T08:31:48.418Z,13.50
2022-09-16T08:34:17.001Z,13.60
2022-09-16T08:36:45.102Z,13.70
2022-09-16T08:39:14.942Z,13.80
2022-09-16T08:42:12.208Z,13.80
2022-09-16T08:44:51.789Z,13.90
2022-09-16T08:47:34.353Z,14.00
2022-09-16T08:50:06.203Z,14.10
2022-09-16T08:52:36.503Z,14.10
2022-09-16T08:55:07.985Z,14.20
2022-09-16T08:57:40.214Z,14.30
2022-09-16T09:00:13.691Z,14.30
2022-09-16T09:02:48.825Z,14.30
2022-09-16T09:05:19.936Z,14.20
2022-09-16T09:07:56.693Z,14.20
2022-09-16T09:10:31.582Z,14.20
2022-09-16T09:13:12.186Z,14.00
2022-09-16T09:15:45.803Z,14.00
2022-09-16T09:18:25.990Z,14.20
2022-09-16T09:21:05.095Z,14.40
2022-09-16T09:23:52.333Z,14.50
2022-09-16T09:26:23.571Z,14.70
2022-09-16T09:29:23.511Z,14.90
2022-09-16T09:31:58.835Z,15.00
2022-09-16T09:34:41.749Z,15.10
2022-09-16T09:37:31.133Z,15.10
2022-09-16T09:40:09.626Z,15.30
2022-09-16T09:42:41.907Z,15.70
2022-09-16T09:45:20.275Z,15.80
2022-09-16T09:47:52.792Z,16.00
2022-09-16T09:50:28.194Z,15.90
2022-09-16T09:53:03.921Z,16.10
2022-09-16T09:55:34.905Z,16.10
2022-09-16T09:58:11.658Z,16.10
2022-09-16T10:00:39.795Z,16.20
2022-09-16T10:03:13.288Z,16.00
2022-09-16T10:05:43.155Z,16.00
2022-09-16T10:08:17.971Z,15.80
2022-09-16T10:10:50.517Z,15.50
2022-09-16T10:13:19.482Z,15.70
2022-09-16T10:15:51.971Z,15.90
2022-09-16T10:18:29.766Z,16.00
2022-09-16T10:21:04.257Z,16.00
2022-09-16T10:23:33.661Z,16.10
2022-09-16T10:26:19.090Z,16.10
2022-09-16T10:29:01.405Z,16.10
2022-09-16T10:31:35.967Z,16.00
2022-09-16T10:34:05.584Z,16.30
2022-09-16T10:36:36.478Z,16.60
2022-09-16T10:39:06.132Z,16.90
2022-09-16T10:41:41.414Z,17.10
2022-09-16T10:44:17.656Z,17.10
2022-09-16T10:46:53.489Z,16.90
2022-09-16T10:49:25.927Z,16.70
2022-09-16T10:51:55.287Z,16.60
2022-09-16T10:54:28.932Z,16.60
2022-09-16T10:56:56.876Z,16.70
2022-09-16T10:59:24.909Z,16.70
2022-09-16T11:02:14.668Z,17.10
2022-09-16T11:04:56.507Z,17.10
2022-09-16T11:07:38.440Z,17.30
2022-09-16T11:10:16.790Z,17.50
2022-09-16T11:13:04.983Z,17.50
2022-09-16T11:15:44.315Z,17.70
2022-09-16T11:18:25.638Z,17.40
2022-09-16T11:21:07.812Z,16.90
2022-09-16T11:23:58.187Z,16.80
2022-09-16T11:26:34.555Z,16.20
2022-09-16T11:29:38.106Z,16.10
2022-09-16T11:32:15.417Z,15.80
2022-09-16T11:34:59.609Z,16.10
2022-09-16T11:37:33.874Z,16.40
2022-09-16T11:40:16.189Z,16.40
2022-09-16T11:42:51.525Z,16.40
2022-09-16T11:45:31.243Z,16.70
2022-09-16T11:48:15.970Z,16.70
2022-09-16T11:50:49.634Z,16.70
2022-09-16T11:53:40.788Z,16.70
2022-09-16T11:56:16.611Z,16.90
2022-09-16T11:58:48.811Z,16.90
2022-09-16T12:01:28.936Z,17.00
2022-09-16T12:04:02.192Z,17.30
2022-09-16T12:06:37.539Z,17.70
2022-09-16T12:09:12.620Z,17.80
2022-09-16T12:11:46.703Z,17.60
2022-09-16T12:14:18.233Z,17.80
2022-09-16T12:16:49.314Z,17.90
2022-09-16T12:19:22.451Z,17.70
2022-09-16T12:21:57.932Z,17.40
2022-09-16T12:24:34.594Z,17.80
2022-09-16T12:27:10.889Z,17.90
2022-09-16T12:29:44.511Z,18.00
2022-09-16T12:32:19.434Z,17.30
2022-09-16T12:34:55.474Z,17.20
2022-09-16T12:37:36.375Z,17.40
2022-09-16T12:40:05.726Z,17.20
2022-09-16T12:43:16.523Z,17.20
2022-09-16T12:46:16.868Z,17.60
2022-09-16T12:49:10.968Z,17.20
2022-09-16T12:52:08.606Z,17.10
2022-09-16T12:55:15.518Z,16.80
2022-09-16T12:58:01.297Z,16.60
2022-09-16T13:00:33.782Z,17.00
2022-09-16T13:03:08.509Z,17.10
2022-09-16T13:05:40.105Z,17.20
2022-09-16T13:08:23.803Z,16.70
2022-09-16T13:11:19.995Z,16.90
2022-09-16T13:13:51.749Z,17.20
2022-09-16T13:16:32.941Z,17.00
2022-09-16T13:19:28.661Z,17.20
2022-09-16T13:22:00.441Z,17.50
2022-09-16T13:24:34.735Z,17.60
2022-09-16T13:27:02.825Z,17.50
2022-09-16T13:29:49.848Z,17.30
2022-09-16T13:32:28.525Z,17.30
2022-09-16T13:35:04.724Z,17.40
2022-09-16T13:37:32.727Z,17.00
2022-09-16T13:40:10.833Z,17.10
2022-09-16T13:42:38.842Z,16.90
2022-09-16T13:45:32.355Z,17.10
2022-09-16T13:48:06.149Z,17.20
2022-09-16T13:50:36.394Z,17.50
2022-09-16T13:53:11.187Z,17.90
2022-09-16T13:55:42.407Z,18.20
2022-09-16T13:58:20.860Z,18.40
2022-09-16T14:01:03.666Z,18.30
2022-09-16T14:03:58.000Z,18.00
2022-09-16T14:06:49.026Z,17.50
2022-09-16T14:09:28.589Z,16.90
2022-09-16T14:12:09.925Z,16.80
2022-09-16T14:14:53.665Z,16.80
2022-09-16T14:17:25.910Z,16.70
2022-09-16T14:19:58.224Z,16.80
2022-09-16T14:22:27.585Z,17.00
2022-09-16T14:25:06.196Z,17.20
2022-09-16T14:27:39.619Z,17.40
2022-09-16T14:30:15.869Z,17.30
2022-09-16T14:32:46.509Z,17.00
2022-09-16T14:35:19.556Z,16.20
2022-09-16T14:37:51.726Z,15.20
2022-09-16T14:40:22.840Z,14.90
2022-09-16T14:42:54.385Z,14.80
2022-09-16T14:45:23.350Z,15.00
2022-09-16T14:47:58.854Z,15.30
2022-09-16T14:50:30.194Z,15.40
2022-09-16T14:53:00.458Z,15.60
2022-09-16T14:55:31.410Z,15.80
2022-09-16T14:58:00.224Z,16.10
2022-09-16T15:00:32.367Z,16.30
2022-09-16T15:03:05.588Z,16.30
2022-09-16T15:05:36.281Z,16.30
2022-09-16T15:08:14.424Z,16.20
2022-09-16T15:10:53.946Z,16.10
2022-09-16T15:13:24.314Z,16.10
2022-09-16T15:15:55.720Z,16.00
2022-09-16T15:18:29.544Z,15.90
2022-09-16T15:21:06.040Z,15.70
2022-09-16T15:23:36.008Z,15.60
2022-09-16T15:26:14.630Z,15.70
2022-09-16T15:28:57.647Z,15.80
2022-09-16T15:31:35.090Z,16.10
2022-09-16T15:34:06.909Z,16.20
2022-09-16T15:36:38.024Z,16.30
2022-09-16T15:39:07.472Z,16.20
2022-09-16T15:41:35.561Z,16.10
2022-09-16T15:44:09.645Z,16.20
2022-09-16T15:46:38.082Z,16.10
2022-09-16T15:49:14.558Z,16.10
2022-09-16T15:51:47.715Z,16.20
2022-09-16T15:54:20.791Z,16.10
2022-09-16T15:56:58.054Z,16.00
2022-09-16T15:59:31.317Z,16.00
2022-09-16T16:02:02.028Z,15.90
2022-09-16T16:04:33.499Z,15.80
2022-09-16T16:07:03.134Z,15.70
2022-09-16T16:09:37.887Z,15.80
2022-09-16T16:12:08.719Z,15.70
2022-09-16T16:14:38.446Z,15.70
2022-09-16T16:17:13.176Z,15.80
2022-09-16T16:19:43.779Z,15.70
2022-09-16T16:22:12.458Z,15.70
2022-09-16T16:24:40.949Z,15.60
2022-09-16T16:27:10.671Z,15.50
2022-09-16T16:29:39.392Z,15.30
2022-09-16T16:32:09.939Z,15.30
2022-09-16T16:34:42.247Z,15.30
2022-09-16T16:37:28.034Z,15.20
2022-09-16T16:40:01.479Z,15.20
2022-09-16T16:42:29.756Z,15.10
2022-09-16T16:44:57.781Z,15.00
2022-09-16T16:47:27.404Z,15.00
2022-09-16T16:49:55.691Z,15.00
2022-09-16T16:52:25.177Z,15.00
2022-09-16T16:54:53.438Z,14.90
2022-09-16T16:57:21.811Z,15.00
2022-09-16T16:59:50.094Z,15.00
2022-09-16T17:02:18.419Z,15.00
2022-09-16T17:04:46.853Z,15.00
2022-09-16T17:07:31.407Z,15.00
2022-09-16T17:10:01.155Z,14.90
2022-09-16T17:12:29.807Z,14.90
2022-09-16T17:14:58.156Z,14.90
2022-09-16T17:17:31.383Z,14.80
2022-09-16T17:20:00.024Z,14.60
2022-09-16T17:22:28.533Z,14.40
2022-09-16T17:24:56.838Z,14.30
2022-09-16T17:27:27.765Z,14.10
2022-09-16T17:29:56.210Z,13.80
2022-09-16T17:32:24.964Z,13.60
2022-09-16T17:34:53.322Z,13.60
2022-09-16T17:37:22.504Z,13.40
2022-09-16T17:39:51.023Z,13.40
2022-09-16T17:42:20.626Z,13.30
2022-09-16T17:44:53.864Z,13.30
2022-09-16T17:47:22.600Z,13.20
2022-09-16T17:49:52.970Z,13.20
2022-09-16T17:52:21.797Z,13.10
2022-09-16T17:54:50.202Z,13.00
2022-09-16T17:57:18.517Z,13.10
2022-09-16T17:59:52.082Z,13.00
2022-09-16T18:02:23.839Z,13.00
2022-09-16T18:04:52.969Z,13.00
2022-09-16T18:07:21.592Z,13.00
2022-09-16T18:09:50.011Z,13.00
2022-09-16T18:12:18.468Z,13.00
2022-09-16T18:14:48.563Z,13.00
2022-09-16T18:17:18.916Z,13.00
2022-09-16T18:19:49.668Z,13.00
2022-09-16T18:22:18.117Z,13.00
2022-09-16T18:24:46.999Z,13.00
2022-09-16T18:27:15.861Z,13.00
2022-09-16T18:29:47.181Z,13.00
2022-09-16T18:32:20.049Z,13.00
2022-09-16T18:34:52.706Z,13.00
2022-09-16T18:37:22.263Z,12.90
2022-09-16T18:39:51.610Z,12.90
2022-09-16T18:42:23.941Z,12.90
2022-09-16T18:44:53.397Z,12.90
2022-09-16T18:47:22.972Z,12.90
2022-09-16T18:49:53.695Z,12.90
2022-09-16T18:52:24.703Z,12.90
2022-09-16T18:54:54.982Z,12.90
2022-09-16T18:57:31.156Z,12.90
2022-09-16T19:00:00.748Z,12.90
2022-09-16T19:02:29.973Z,12.90
2022-09-16T19:05:00.151Z,12.90
2022-09-16T19:07:36.266Z,12.90
2022-09-16T19:10:09.480Z,12.90
2022-09-16T19:12:39.308Z,12.90
2022-09-16T19:15:11.830Z,12.80
2022-09-16T19:17:40.471Z,12.80
2022-09-16T19:20:15.299Z,12.80
2022-09-16T19:22:43.832Z,12.80
2022-09-16T19:25:13.664Z,12.90
2022-09-16T19:27:42.296Z,12.80
2022-09-16T19:30:11.981Z,12.90
2022-09-16T19:32:47.084Z,12.80
2022-09-16T19:35:28.119Z,12.80
2022-09-16T19:37:59.706Z,12.80
2022-09-16T19:40:33.495Z,12.80
2022-09-16T19:43:05.646Z,12.70
2022-09-16T19:45:36.806Z,12.60
2022-09-16T19:48:08.299Z,12.70
2022-09-16T19:50:46.267Z,12.60
2022-09-16T19:53:16.883Z,12.60
2022-09-16T19:55:54.231Z,12.60
2022-09-16T19:58:32.768Z,12.60
2022-09-16T20:01:04.769Z,12.60
2022-09-16T20:03:39.652Z,12.50
2022-09-16T20:06:15.945Z,12.50
2022-09-16T20:08:47.712Z,12.50
2022-09-16T20:11:30.381Z,12.50
2022-09-16T20:14:03.785Z,12.50
2022-09-16T20:16:38.104Z,12.50
2022-09-16T20:19:10.522Z,12.50
2022-09-16T20:21:46.200Z,12.50
2022-09-16T20:24:25.625Z,12.50
2022-09-16T20:26:58.081Z,12.50
2022-09-16T20:29:28.573Z,12.30
2022-09-16T20:31:57.484Z,12.30
2022-09-16T20:34:26.763Z,12.20
2022-09-16T20:36:58.967Z,12.20
2022-09-16T20:39:30.966Z,12.10
2022-09-16T20:42:05.634Z,12.00
2022-09-16T20:44:37.644Z,11.90
2022-09-16T20:47:08.844Z,11.70
2022-09-16T20:49:38.112Z,11.60
2022-09-16T20:52:08.108Z,11.60
2022-09-16T20:54:38.457Z,11.50
2022-09-16T20:57:09.894Z,11.50
2022-09-16T20:59:39.345Z,11.50
2022-09-16T21:02:09.600Z,11.30
2022-09-16T21:04:38.766Z,11.30
2022-09-16T21:07:09.026Z,11.30
2022-09-16T21:09:38.842Z,11.20
2022-09-16T21:12:11.315Z,11.20
2022-09-16T21:14:41.492Z,11.10
2022-09-16T21:17:09.851Z,11.10
2022-09-16T21:19:38.540Z,11.10
2022-09-16T21:22:08.605Z,11.10
2022-09-16T21:24:37.800Z,11.00
2022-09-16T21:27:06.660Z,11.00
2022-09-16T21:29:35.833Z,11.00
2022-09-16T21:32:04.730Z,11.00
2022-09-16T21:34:33.078Z,11.00
2022-09-16T21:37:03.710Z,11.00
2022-09-16T21:39:33.463Z,11.00
2022-09-16T21:42:01.820Z,11.00
2022-09-16T21:44:30.230Z,10.90
2022-09-16T21:46:58.568Z,11.00
2022-09-16T21:49:28.952Z,10.90
2022-09-16T21:51:58.984Z,10.90
2022-09-16T21:54:28.095Z,10.90
2022-09-16T21:56:57.906Z,10.80
2022-09-16T21:59:26.539Z,10.80
2022-09-16T22:01:56.793Z,10.80
2022-09-16T22:04:28.374Z,10.80
2022-09-16T22:06:56.570Z,10.80
2022-09-16T22:09:24.947Z,10.80
2022-09-16T22:11:53.182Z,10.70
2022-09-16T22:14:22.640Z,10.80
2022-09-16T22:16:50.818Z,10.80
2022-09-16T22:19:20.317Z,10.70
2022-09-16T22:21:49.960Z,10.80
2022-09-16T22:24:20.470Z,10.80
2022-09-16T22:26:49.680Z,10.80
2022-09-16T22:29:17.749Z,10.80
2022-09-16T22:31:47.184Z,10.90
2022-09-16T22:34:15.405Z,10.90
2022-09-16T22:36:43.532Z,10.90
2022-09-16T22:39:13.925Z,10.90
2022-09-16T22:41:42.714Z,10.90
2022-09-16T22:44:10.976Z,10.90
2022-09-16T22:46:42.260Z,10.80
2022-09-16T22:49:12.749Z,10.90
2022-09-16T22:51:41.409Z,10.90
2022-09-16T22:54:10.036Z,10.80
2022-09-16T22:56:38.245Z,10.80
2022-09-16T22:59:08.355Z,10.90
2022-09-16T23:01:39.329Z,10.80
2022-09-16T23:04:09.539Z,10.70
2022-09-16T23:06:40.103Z,10.60
2022-09-16T23:09:09.351Z,10.60
2022-09-16T23:11:38.178Z,10.60
2022-09-16T23:14:06.783Z,10.60
2022-09-16T23:16:36.375Z,10.50
2022-09-16T23:19:07.339Z,10.50
2022-09-16T23:21:35.593Z,10.50
2022-09-16T23:24:06.797Z,10.60
2022-09-16T23:26:36.962Z,10.50
2022-09-16T23:29:06.676Z,10.50
2022-09-16T23:31:39.630Z,10.50
2022-09-16T23:34:08.592Z,10.50
2022-09-16T23:36:37.840Z,10.60
2022-09-16T23:39:07.942Z,10.60
2022-09-16T23:41:36.371Z,10.60
2022-09-16T23:44:05.566Z,10.60
2022-09-16T23:46:34.399Z,10.60
2022-09-16T23:49:02.829Z,10.60
2022-09-16T23:51:32.233Z,10.70
2022-09-16T23:54:02.057Z,10.70
2022-09-16T23:56:32.691Z,10.70
2022-09-16T23:59:01.547Z,10.70
